Home   Weather   Norway   Bergen   Past weeks
Flag for Norway

Past Weather in Bergen, Norway — Yesterday and Last 2 Weeks

Currently: 37 °F. Clear. (Weather station: Bergen / Flesland, Norway). See more current weather

Past Weather in Bergen — Graph

°F

Bergen Temperature Yesterday

Maximum temperature yesterday: 57 °F (at 5:20 pm)
Minimum temperature yesterday: 32 °F (at 6:50 am)
Average temperature yesterday: 46 °F

High & Low Weather Summary for the Past Weeks

 TemperatureHumidityPressure
High57 °F (Apr 17, 5:20 pm)100% (Apr 4, 3:20 am)30.57 "Hg (Apr 4, 3:20 am)
Low27 °F (Apr 5, 1:20 am)31% (Apr 11, 6:50 pm)29.00 "Hg (Apr 9, 4:50 am)
Average39 °F72%29.97 "Hg
* Reported Apr 3 4:20 am — Apr 18 4:20 am, Bergen. Weather by CustomWeather, © 2021

Note: Actual official high and low records may vary slightly from our data, if they occured in-between our weather recording intervals... More about our weather records

Bergen Weather History for the Previous 24 Hours

Scroll right to see more
 ConditionsComfort  
Time TempWeatherWind HumidityBarometerVisibility
4:20 am
Sun, Apr 18
37 °FClear.No wind81%30.36 "Hg10 mi
3:50 am39 °FClear.2 mph75%30.36 "Hg10 mi
3:20 am39 °FClear.1 mph75%30.36 "Hg10 mi
2:50 am39 °FClear.2 mph70%30.39 "Hg10 mi
2:20 am39 °FClear.2 mph70%30.39 "Hg10 mi
1:50 am41 °FClear.No wind66%30.39 "Hg10 mi
1:20 am43 °FClear.No wind61%30.39 "Hg10 mi
12:50 am41 °FClear.1 mph66%30.39 "Hg10 mi
11:50 pm
Sat, Apr 17
43 °FClear.No wind61%30.39 "Hg10 mi
11:20 pm45 °FClear.2 mph57%30.39 "Hg10 mi
10:50 pm46 °FClear.3 mph53%30.39 "Hg10 mi
10:20 pm48 °FClear.8 mph50%30.42 "Hg10 mi
9:50 pm48 °FClear.7 mph50%30.42 "Hg10 mi
9:20 pm48 °FClear.6 mph46%30.42 "Hg10 mi
8:50 pm50 °FSunny.7 mph47%30.42 "Hg10 mi
8:20 pm52 °FSunny.7 mph44%30.42 "Hg10 mi
7:50 pm54 °FSunny.9 mph41%30.42 "Hg10 mi
7:20 pm54 °FSunny.10 mph41%30.39 "Hg10 mi
6:50 pm55 °FSunny.8 mph36%30.42 "Hg10 mi
6:20 pm55 °FPassing clouds.3 mph36%30.42 "HgN/A
5:50 pm57 °FSunny.6 mph33%30.42 "Hg10 mi
5:20 pm57 °FSunny.7 mph36%30.42 "Hg10 mi
4:50 pm55 °FPassing clouds.8 mph36%30.42 "HgN/A
4:20 pm55 °FSunny.9 mph36%30.42 "Hg10 mi
3:50 pm55 °FSunny.8 mph36%30.45 "Hg10 mi
3:20 pm55 °FPassing clouds.7 mph33%30.45 "HgN/A
2:50 pm55 °FSunny.7 mph33%30.45 "Hg10 mi
2:20 pm55 °FSunny.7 mph31%30.45 "Hg10 mi
1:50 pm55 °FSunny.6 mph31%30.45 "Hg10 mi
1:20 pm54 °FSunny.8 mph41%30.45 "Hg10 mi
12:50 pm54 °FSunny.8 mph41%30.48 "Hg10 mi
12:20 pm54 °FPassing clouds.5 mph41%30.48 "HgN/A
11:50 am52 °FSunny.6 mph38%30.48 "Hg10 mi
11:20 am52 °FPassing clouds.5 mph41%30.48 "HgN/A
10:50 am50 °FSunny.3 mph43%30.48 "Hg10 mi
10:20 am46 °FSunny.3 mph53%30.48 "Hg10 mi
9:50 am46 °FSunny.1 mph50%30.48 "Hg10 mi
9:20 am45 °FSunny.2 mph49%30.48 "Hg10 mi
8:50 am43 °FSunny.2 mph61%30.48 "Hg10 mi
8:20 am39 °FSunny.No wind65%30.48 "Hg10 mi
7:50 am36 °FSunny.No wind75%30.48 "Hg10 mi
7:20 am34 °FSunny.1 mph75%30.48 "Hg10 mi
6:50 am32 °FSunny.2 mph80%30.48 "Hg10 mi
6:20 am34 °FSunny.2 mph70%30.48 "Hg10 mi
5:50 am34 °FPassing clouds.3 mph75%30.48 "HgN/A
Weather by CustomWeather, © 2021

See weather overview